sensor_id;sensor_type;location;lat;lon;timestamp;P1;durP1;ratioP1;P2;durP2;ratioP2
5121;SDS011;2563;52.242;7.956;2024-01-27T00:00:21;9.77;;;2.30;;
5121;SDS011;2563;52.242;7.956;2024-01-27T00:02:47;9.43;;;1.97;;
5121;SDS011;2563;52.242;7.956;2024-01-27T00:05:12;32.73;;;3.97;;
5121;SDS011;2563;52.242;7.956;2024-01-27T00:07:37;15.00;;;3.17;;
5121;SDS011;2563;52.242;7.956;2024-01-27T00:10:03;25.93;;;3.47;;
5121;SDS011;2563;52.242;7.956;2024-01-27T00:12:29;17.43;;;2.77;;
5121;SDS011;2563;52.242;7.956;2024-01-27T00:14:54;16.10;;;2.80;;
5121;SDS011;2563;52.242;7.956;2024-01-27T00:17:19;21.57;;;3.17;;
5121;SDS011;2563;52.242;7.956;2024-01-27T00:19:49;12.53;;;2.57;;
5121;SDS011;2563;52.242;7.956;2024-01-27T00:22:15;19.37;;;3.33;;
5121;SDS011;2563;52.242;7.956;2024-01-27T00:24:42;19.93;;;2.33;;
5121;SDS011;2563;52.242;7.956;2024-01-27T00:27:07;19.63;;;3.30;;
5121;SDS011;2563;52.242;7.956;2024-01-27T00:29:33;15.70;;;2.17;;
5121;SDS011;2563;52.242;7.956;2024-01-27T00:31:58;16.63;;;3.20;;
5121;SDS011;2563;52.242;7.956;2024-01-27T00:34:24;7.73;;;2.00;;
5121;SDS011;2563;52.242;7.956;2024-01-27T00:36:50;17.73;;;3.37;;
5121;SDS011;2563;52.242;7.956;2024-01-27T00:39:15;23.33;;;2.70;;
5121;SDS011;2563;52.242;7.956;2024-01-27T00:41:41;14.63;;;2.83;;
5121;SDS011;2563;52.242;7.956;2024-01-27T00:44:07;23.77;;;3.47;;
5121;SDS011;2563;52.242;7.956;2024-01-27T00:46:33;10.43;;;2.07;;
5121;SDS011;2563;52.242;7.956;2024-01-27T00:48:58;19.60;;;2.40;;
5121;SDS011;2563;52.242;7.956;2024-01-27T00:51:23;14.70;;;2.63;;
5121;SDS011;2563;52.242;7.956;2024-01-27T00:53:49;14.20;;;2.50;;
5121;SDS011;2563;52.242;7.956;2024-01-27T00:56:14;16.90;;;3.27;;
5121;SDS011;2563;52.242;7.956;2024-01-27T00:58:40;10.23;;;2.53;;
5121;SDS011;2563;52.242;7.956;2024-01-27T01:01:05;24.40;;;2.90;;
5121;SDS011;2563;52.242;7.956;2024-01-27T01:03:31;25.30;;;3.33;;
5121;SDS011;2563;52.242;7.956;2024-01-27T01:05:56;18.33;;;2.60;;
5121;SDS011;2563;52.242;7.956;2024-01-27T01:08:22;13.47;;;2.83;;
5121;SDS011;2563;52.242;7.956;2024-01-27T01:10:47;16.07;;;2.43;;
5121;SDS011;2563;52.242;7.956;2024-01-27T01:13:12;15.23;;;3.77;;
5121;SDS011;2563;52.242;7.956;2024-01-27T01:15:38;11.13;;;2.60;;
5121;SDS011;2563;52.242;7.956;2024-01-27T01:18:04;14.33;;;3.00;;
5121;SDS011;2563;52.242;7.956;2024-01-27T01:20:30;11.60;;;1.93;;
5121;SDS011;2563;52.242;7.956;2024-01-27T01:22:55;19.60;;;2.90;;
5121;SDS011;2563;52.242;7.956;2024-01-27T01:25:20;12.07;;;2.17;;
5121;SDS011;2563;52.242;7.956;2024-01-27T01:27:46;12.70;;;2.60;;
5121;SDS011;2563;52.242;7.956;2024-01-27T01:30:11;18.47;;;2.47;;
5121;SDS011;2563;52.242;7.956;2024-01-27T01:32:37;20.10;;;3.20;;
5121;SDS011;2563;52.242;7.956;2024-01-27T01:35:02;13.57;;;2.80;;
5121;SDS011;2563;52.242;7.956;2024-01-27T01:37:28;11.43;;;3.07;;
5121;SDS011;2563;52.242;7.956;2024-01-27T01:39:54;16.70;;;2.40;;
5121;SDS011;2563;52.242;7.956;2024-01-27T01:42:19;16.50;;;2.67;;
5121;SDS011;2563;52.242;7.956;2024-01-27T01:44:48;11.53;;;2.50;;
5121;SDS011;2563;52.242;7.956;2024-01-27T01:47:13;15.17;;;1.90;;
5121;SDS011;2563;52.242;7.956;2024-01-27T01:49:39;11.97;;;2.87;;
5121;SDS011;2563;52.242;7.956;2024-01-27T01:52:05;10.90;;;2.20;;
5121;SDS011;2563;52.242;7.956;2024-01-27T01:54:31;12.83;;;2.13;;
5121;SDS011;2563;52.242;7.956;2024-01-27T01:56:57;16.33;;;2.50;;
5121;SDS011;2563;52.242;7.956;2024-01-27T01:59:23;18.60;;;3.07;;
5121;SDS011;2563;52.242;7.956;2024-01-27T02:01:49;14.40;;;2.60;;
5121;SDS011;2563;52.242;7.956;2024-01-27T02:04:14;14.20;;;2.37;;
5121;SDS011;2563;52.242;7.956;2024-01-27T02:06:40;16.53;;;2.90;;
5121;SDS011;2563;52.242;7.956;2024-01-27T02:09:05;10.20;;;3.40;;
5121;SDS011;2563;52.242;7.956;2024-01-27T02:11:30;15.93;;;2.87;;
5121;SDS011;2563;52.242;7.956;2024-01-27T02:13:56;11.30;;;2.50;;
5121;SDS011;2563;52.242;7.956;2024-01-27T02:16:21;11.67;;;2.50;;
5121;SDS011;2563;52.242;7.956;2024-01-27T02:18:46;19.87;;;3.27;;
5121;SDS011;2563;52.242;7.956;2024-01-27T02:21:12;29.90;;;3.43;;
5121;SDS011;2563;52.242;7.956;2024-01-27T02:23:37;16.17;;;2.47;;
5121;SDS011;2563;52.242;7.956;2024-01-27T02:26:03;11.13;;;3.03;;
5121;SDS011;2563;52.242;7.956;2024-01-27T02:28:28;15.00;;;2.70;;
5121;SDS011;2563;52.242;7.956;2024-01-27T02:30:57;13.13;;;2.73;;
5121;SDS011;2563;52.242;7.956;2024-01-27T02:33:22;14.03;;;3.40;;
5121;SDS011;2563;52.242;7.956;2024-01-27T02:35:48;14.60;;;2.60;;
5121;SDS011;2563;52.242;7.956;2024-01-27T02:38:13;19.40;;;3.40;;
5121;SDS011;2563;52.242;7.956;2024-01-27T02:40:38;9.50;;;2.43;;
5121;SDS011;2563;52.242;7.956;2024-01-27T02:43:04;18.00;;;2.63;;
5121;SDS011;2563;52.242;7.956;2024-01-27T02:45:29;10.80;;;2.60;;
5121;SDS011;2563;52.242;7.956;2024-01-27T02:47:54;13.30;;;2.83;;
5121;SDS011;2563;52.242;7.956;2024-01-27T02:50:20;17.87;;;3.73;;
5121;SDS011;2563;52.242;7.956;2024-01-27T02:52:45;25.23;;;4.33;;
5121;SDS011;2563;52.242;7.956;2024-01-27T02:55:10;11.30;;;2.87;;
5121;SDS011;2563;52.242;7.956;2024-01-27T02:57:36;20.17;;;3.80;;
5121;SDS011;2563;52.242;7.956;2024-01-27T03:00:01;23.43;;;2.93;;
5121;SDS011;2563;52.242;7.956;2024-01-27T03:02:27;23.40;;;3.07;;
5121;SDS011;2563;52.242;7.956;2024-01-27T03:04:52;11.10;;;2.20;;
5121;SDS011;2563;52.242;7.956;2024-01-27T03:07:18;23.50;;;4.50;;
5121;SDS011;2563;52.242;7.956;2024-01-27T03:09:43;17.80;;;3.30;;
5121;SDS011;2563;52.242;7.956;2024-01-27T03:12:08;14.77;;;2.83;;
5121;SDS011;2563;52.242;7.956;2024-01-27T03:14:34;17.40;;;3.40;;
5121;SDS011;2563;52.242;7.956;2024-01-27T03:16:59;23.23;;;3.07;;
5121;SDS011;2563;52.242;7.956;2024-01-27T03:19:25;19.90;;;4.13;;
5121;SDS011;2563;52.242;7.956;2024-01-27T03:21:50;15.07;;;3.10;;
5121;SDS011;2563;52.242;7.956;2024-01-27T03:24:15;9.10;;;2.20;;
5121;SDS011;2563;52.242;7.956;2024-01-27T03:26:41;15.00;;;3.37;;
5121;SDS011;2563;52.242;7.956;2024-01-27T03:29:06;17.27;;;3.00;;
5121;SDS011;2563;52.242;7.956;2024-01-27T03:31:32;13.83;;;2.83;;
5121;SDS011;2563;52.242;7.956;2024-01-27T03:33:59;16.90;;;3.03;;
5121;SDS011;2563;52.242;7.956;2024-01-27T03:36:25;20.57;;;3.57;;
5121;SDS011;2563;52.242;7.956;2024-01-27T03:38:51;14.83;;;3.47;;
5121;SDS011;2563;52.242;7.956;2024-01-27T03:41:17;11.33;;;3.23;;
5121;SDS011;2563;52.242;7.956;2024-01-27T03:43:42;25.60;;;3.50;;
5121;SDS011;2563;52.242;7.956;2024-01-27T03:46:08;17.30;;;2.90;;
5121;SDS011;2563;52.242;7.956;2024-01-27T03:48:33;12.40;;;3.30;;
5121;SDS011;2563;52.242;7.956;2024-01-27T03:51:00;12.67;;;3.20;;
5121;SDS011;2563;52.242;7.956;2024-01-27T03:53:25;13.93;;;2.80;;
5121;SDS011;2563;52.242;7.956;2024-01-27T03:55:51;14.00;;;2.67;;
5121;SDS011;2563;52.242;7.956;2024-01-27T03:58:16;8.90;;;2.67;;
5121;SDS011;2563;52.242;7.956;2024-01-27T04:00:42;14.87;;;3.57;;
5121;SDS011;2563;52.242;7.956;2024-01-27T04:03:07;18.33;;;3.43;;
5121;SDS011;2563;52.242;7.956;2024-01-27T04:05:34;15.83;;;3.07;;
5121;SDS011;2563;52.242;7.956;2024-01-27T04:08:00;14.03;;;3.73;;
5121;SDS011;2563;52.242;7.956;2024-01-27T04:10:25;16.97;;;3.90;;
5121;SDS011;2563;52.242;7.956;2024-01-27T04:12:51;14.33;;;3.50;;
5121;SDS011;2563;52.242;7.956;2024-01-27T04:15:16;15.50;;;3.43;;
5121;SDS011;2563;52.242;7.956;2024-01-27T04:17:41;11.77;;;4.43;;
5121;SDS011;2563;52.242;7.956;2024-01-27T04:20:07;18.73;;;4.80;;
5121;SDS011;2563;52.242;7.956;2024-01-27T04:22:34;21.23;;;4.10;;
5121;SDS011;2563;52.242;7.956;2024-01-27T04:25:00;16.40;;;3.87;;
5121;SDS011;2563;52.242;7.956;2024-01-27T04:27:29;9.67;;;2.70;;
5121;SDS011;2563;52.242;7.956;2024-01-27T04:29:55;17.23;;;3.87;;
5121;SDS011;2563;52.242;7.956;2024-01-27T04:32:22;18.37;;;3.47;;
5121;SDS011;2563;52.242;7.956;2024-01-27T04:34:47;14.13;;;3.50;;
5121;SDS011;2563;52.242;7.956;2024-01-27T04:37:13;13.20;;;3.83;;
5121;SDS011;2563;52.242;7.956;2024-01-27T04:39:38;8.37;;;3.40;;
5121;SDS011;2563;52.242;7.956;2024-01-27T04:42:04;17.27;;;4.13;;
5121;SDS011;2563;52.242;7.956;2024-01-27T04:44:31;18.33;;;3.70;;
5121;SDS011;2563;52.242;7.956;2024-01-27T04:46:56;11.50;;;3.60;;
5121;SDS011;2563;52.242;7.956;2024-01-27T04:49:22;17.63;;;3.43;;
5121;SDS011;2563;52.242;7.956;2024-01-27T04:51:47;15.40;;;3.57;;
5121;SDS011;2563;52.242;7.956;2024-01-27T04:54:13;15.63;;;4.10;;
5121;SDS011;2563;52.242;7.956;2024-01-27T04:56:38;16.53;;;3.40;;
5121;SDS011;2563;52.242;7.956;2024-01-27T04:59:04;11.50;;;3.80;;
5121;SDS011;2563;52.242;7.956;2024-01-27T05:01:30;16.37;;;4.70;;
5121;SDS011;2563;52.242;7.956;2024-01-27T05:03:55;15.97;;;4.10;;
5121;SDS011;2563;52.242;7.956;2024-01-27T05:06:21;14.63;;;5.10;;
5121;SDS011;2563;52.242;7.956;2024-01-27T05:08:46;22.33;;;4.70;;
5121;SDS011;2563;52.242;7.956;2024-01-27T05:11:11;16.20;;;4.17;;
5121;SDS011;2563;52.242;7.956;2024-01-27T05:13:37;16.87;;;3.80;;
5121;SDS011;2563;52.242;7.956;2024-01-27T05:16:05;19.57;;;4.27;;
5121;SDS011;2563;52.242;7.956;2024-01-27T05:18:31;12.63;;;4.00;;
5121;SDS011;2563;52.242;7.956;2024-01-27T05:20:56;25.50;;;5.07;;
5121;SDS011;2563;52.242;7.956;2024-01-27T05:23:22;14.93;;;4.43;;
5121;SDS011;2563;52.242;7.956;2024-01-27T05:25:48;21.73;;;4.33;;
5121;SDS011;2563;52.242;7.956;2024-01-27T05:28:14;15.70;;;4.03;;
5121;SDS011;2563;52.242;7.956;2024-01-27T05:30:39;16.50;;;4.93;;
5121;SDS011;2563;52.242;7.956;2024-01-27T05:33:04;10.80;;;4.27;;
5121;SDS011;2563;52.242;7.956;2024-01-27T05:35:30;10.40;;;4.07;;
5121;SDS011;2563;52.242;7.956;2024-01-27T05:37:56;19.80;;;4.33;;
5121;SDS011;2563;52.242;7.956;2024-01-27T05:40:21;11.00;;;4.50;;
5121;SDS011;2563;52.242;7.956;2024-01-27T05:42:46;21.47;;;5.47;;
5121;SDS011;2563;52.242;7.956;2024-01-27T05:45:12;13.77;;;5.50;;
5121;SDS011;2563;52.242;7.956;2024-01-27T05:47:38;9.20;;;3.80;;
5121;SDS011;2563;52.242;7.956;2024-01-27T05:50:03;14.50;;;4.80;;
5121;SDS011;2563;52.242;7.956;2024-01-27T05:52:29;14.90;;;4.80;;
5121;SDS011;2563;52.242;7.956;2024-01-27T05:54:55;14.83;;;5.13;;
5121;SDS011;2563;52.242;7.956;2024-01-27T05:57:20;16.57;;;4.40;;
5121;SDS011;2563;52.242;7.956;2024-01-27T05:59:45;12.17;;;5.30;;
5121;SDS011;2563;52.242;7.956;2024-01-27T06:02:11;23.53;;;5.10;;
5121;SDS011;2563;52.242;7.956;2024-01-27T06:04:36;13.03;;;5.30;;
5121;SDS011;2563;52.242;7.956;2024-01-27T06:07:02;22.90;;;5.37;;
5121;SDS011;2563;52.242;7.956;2024-01-27T06:09:27;12.20;;;5.13;;
5121;SDS011;2563;52.242;7.956;2024-01-27T06:11:52;18.33;;;5.93;;
5121;SDS011;2563;52.242;7.956;2024-01-27T06:14:18;17.10;;;5.17;;
5121;SDS011;2563;52.242;7.956;2024-01-27T06:16:43;14.40;;;5.10;;
5121;SDS011;2563;52.242;7.956;2024-01-27T06:19:09;16.53;;;4.83;;
5121;SDS011;2563;52.242;7.956;2024-01-27T06:21:34;16.87;;;5.03;;
5121;SDS011;2563;52.242;7.956;2024-01-27T06:24:00;13.53;;;5.03;;
5121;SDS011;2563;52.242;7.956;2024-01-27T06:26:25;16.00;;;5.33;;
5121;SDS011;2563;52.242;7.956;2024-01-27T06:28:51;23.47;;;5.20;;
5121;SDS011;2563;52.242;7.956;2024-01-27T06:31:16;29.10;;;6.40;;
5121;SDS011;2563;52.242;7.956;2024-01-27T06:33:41;16.73;;;6.73;;
5121;SDS011;2563;52.242;7.956;2024-01-27T06:36:07;17.50;;;5.93;;
5121;SDS011;2563;52.242;7.956;2024-01-27T06:38:34;18.20;;;6.10;;
5121;SDS011;2563;52.242;7.956;2024-01-27T06:41:00;12.47;;;4.90;;
5121;SDS011;2563;52.242;7.956;2024-01-27T06:43:25;17.43;;;5.63;;
5121;SDS011;2563;52.242;7.956;2024-01-27T06:45:50;11.67;;;4.70;;
5121;SDS011;2563;52.242;7.956;2024-01-27T06:48:16;19.77;;;5.30;;
5121;SDS011;2563;52.242;7.956;2024-01-27T06:50:41;17.73;;;4.93;;
5121;SDS011;2563;52.242;7.956;2024-01-27T06:53:06;25.87;;;5.53;;
5121;SDS011;2563;52.242;7.956;2024-01-27T06:55:32;14.50;;;5.63;;
5121;SDS011;2563;52.242;7.956;2024-01-27T06:57:57;14.73;;;5.40;;
5121;SDS011;2563;52.242;7.956;2024-01-27T07:00:22;12.70;;;4.87;;
5121;SDS011;2563;52.242;7.956;2024-01-27T07:02:48;16.83;;;6.80;;
5121;SDS011;2563;52.242;7.956;2024-01-27T07:05:13;17.77;;;7.37;;
5121;SDS011;2563;52.242;7.956;2024-01-27T07:07:39;11.57;;;5.80;;
5121;SDS011;2563;52.242;7.956;2024-01-27T07:10:09;23.03;;;6.63;;
5121;SDS011;2563;52.242;7.956;2024-01-27T07:12:34;19.33;;;6.77;;
5121;SDS011;2563;52.242;7.956;2024-01-27T07:15:00;16.53;;;5.37;;
5121;SDS011;2563;52.242;7.956;2024-01-27T07:17:28;16.30;;;5.47;;
5121;SDS011;2563;52.242;7.956;2024-01-27T07:19:54;16.03;;;5.80;;
5121;SDS011;2563;52.242;7.956;2024-01-27T07:22:20;18.50;;;6.30;;
5121;SDS011;2563;52.242;7.956;2024-01-27T07:24:45;19.30;;;6.27;;
5121;SDS011;2563;52.242;7.956;2024-01-27T07:27:14;20.23;;;6.50;;
5121;SDS011;2563;52.242;7.956;2024-01-27T07:29:39;18.87;;;5.90;;
5121;SDS011;2563;52.242;7.956;2024-01-27T07:32:05;17.90;;;6.30;;
5121;SDS011;2563;52.242;7.956;2024-01-27T07:34:32;15.87;;;5.30;;
5121;SDS011;2563;52.242;7.956;2024-01-27T07:36:58;21.67;;;5.93;;
5121;SDS011;2563;52.242;7.956;2024-01-27T07:39:23;15.60;;;5.07;;
5121;SDS011;2563;52.242;7.956;2024-01-27T07:41:48;15.43;;;5.80;;
5121;SDS011;2563;52.242;7.956;2024-01-27T07:44:14;19.03;;;6.00;;
5121;SDS011;2563;52.242;7.956;2024-01-27T07:46:40;19.37;;;5.87;;
5121;SDS011;2563;52.242;7.956;2024-01-27T07:49:06;19.23;;;5.67;;
5121;SDS011;2563;52.242;7.956;2024-01-27T07:51:33;21.87;;;5.90;;
5121;SDS011;2563;52.242;7.956;2024-01-27T07:53:59;22.57;;;7.07;;
5121;SDS011;2563;52.242;7.956;2024-01-27T07:56:25;17.63;;;6.90;;
5121;SDS011;2563;52.242;7.956;2024-01-27T07:58:51;13.67;;;6.10;;
5121;SDS011;2563;52.242;7.956;2024-01-27T08:01:17;25.43;;;6.00;;
5121;SDS011;2563;52.242;7.956;2024-01-27T08:03:43;37.93;;;7.47;;
5121;SDS011;2563;52.242;7.956;2024-01-27T08:06:14;22.10;;;5.77;;
5121;SDS011;2563;52.242;7.956;2024-01-27T08:08:46;17.13;;;6.00;;
5121;SDS011;2563;52.242;7.956;2024-01-27T08:11:13;23.33;;;6.27;;
5121;SDS011;2563;52.242;7.956;2024-01-27T08:13:40;21.00;;;6.00;;
5121;SDS011;2563;52.242;7.956;2024-01-27T08:16:05;15.47;;;6.90;;
5121;SDS011;2563;52.242;7.956;2024-01-27T08:18:31;21.90;;;7.30;;
5121;SDS011;2563;52.242;7.956;2024-01-27T08:20:56;17.27;;;6.13;;
5121;SDS011;2563;52.242;7.956;2024-01-27T08:23:22;27.20;;;6.60;;
5121;SDS011;2563;52.242;7.956;2024-01-27T08:25:47;34.77;;;7.60;;
5121;SDS011;2563;52.242;7.956;2024-01-27T08:28:17;18.77;;;7.07;;
5121;SDS011;2563;52.242;7.956;2024-01-27T08:30:42;25.03;;;7.37;;
5121;SDS011;2563;52.242;7.956;2024-01-27T08:33:07;20.53;;;7.40;;
5121;SDS011;2563;52.242;7.956;2024-01-27T08:35:33;29.50;;;7.37;;
5121;SDS011;2563;52.242;7.956;2024-01-27T08:37:58;23.00;;;7.20;;
5121;SDS011;2563;52.242;7.956;2024-01-27T08:40:23;17.43;;;6.47;;
5121;SDS011;2563;52.242;7.956;2024-01-27T08:42:49;17.33;;;6.47;;
5121;SDS011;2563;52.242;7.956;2024-01-27T08:45:14;21.70;;;7.73;;
5121;SDS011;2563;52.242;7.956;2024-01-27T08:47:40;22.20;;;7.53;;
5121;SDS011;2563;52.242;7.956;2024-01-27T08:50:05;22.37;;;8.23;;
5121;SDS011;2563;52.242;7.956;2024-01-27T08:52:31;17.97;;;6.87;;
5121;SDS011;2563;52.242;7.956;2024-01-27T08:54:56;21.83;;;8.57;;
5121;SDS011;2563;52.242;7.956;2024-01-27T08:57:22;28.27;;;9.00;;
5121;SDS011;2563;52.242;7.956;2024-01-27T08:59:47;23.93;;;8.10;;
5121;SDS011;2563;52.242;7.956;2024-01-27T09:02:12;37.00;;;8.83;;
5121;SDS011;2563;52.242;7.956;2024-01-27T09:04:38;19.93;;;7.93;;
5121;SDS011;2563;52.242;7.956;2024-01-27T09:07:03;23.57;;;9.60;;
5121;SDS011;2563;52.242;7.956;2024-01-27T09:09:29;24.20;;;8.33;;
5121;SDS011;2563;52.242;7.956;2024-01-27T09:11:54;27.83;;;8.83;;
5121;SDS011;2563;52.242;7.956;2024-01-27T09:14:19;30.83;;;8.57;;
5121;SDS011;2563;52.242;7.956;2024-01-27T09:16:44;21.87;;;9.17;;
5121;SDS011;2563;52.242;7.956;2024-01-27T09:19:11;30.57;;;9.77;;
5121;SDS011;2563;52.242;7.956;2024-01-27T09:21:37;22.60;;;8.30;;
5121;SDS011;2563;52.242;7.956;2024-01-27T09:24:02;23.30;;;9.10;;
5121;SDS011;2563;52.242;7.956;2024-01-27T09:26:28;28.07;;;9.90;;
5121;SDS011;2563;52.242;7.956;2024-01-27T09:28:53;24.07;;;10.20;;
5121;SDS011;2563;52.242;7.956;2024-01-27T09:31:22;39.10;;;8.63;;
5121;SDS011;2563;52.242;7.956;2024-01-27T09:33:51;26.80;;;9.03;;
5121;SDS011;2563;52.242;7.956;2024-01-27T09:36:19;29.33;;;8.50;;
5121;SDS011;2563;52.242;7.956;2024-01-27T09:38:45;21.00;;;7.30;;
5121;SDS011;2563;52.242;7.956;2024-01-27T09:41:12;36.97;;;8.93;;
5121;SDS011;2563;52.242;7.956;2024-01-27T09:43:40;24.80;;;8.73;;
5121;SDS011;2563;52.242;7.956;2024-01-27T09:46:08;18.87;;;8.30;;
5121;SDS011;2563;52.242;7.956;2024-01-27T09:48:34;24.90;;;8.20;;
5121;SDS011;2563;52.242;7.956;2024-01-27T09:51:01;23.63;;;8.50;;
5121;SDS011;2563;52.242;7.956;2024-01-27T09:53:28;29.60;;;8.60;;
5121;SDS011;2563;52.242;7.956;2024-01-27T09:55:54;21.10;;;7.93;;
5121;SDS011;2563;52.242;7.956;2024-01-27T09:58:23;22.33;;;8.53;;
5121;SDS011;2563;52.242;7.956;2024-01-27T10:00:52;28.43;;;8.10;;
5121;SDS011;2563;52.242;7.956;2024-01-27T10:03:22;28.20;;;8.80;;
5121;SDS011;2563;52.242;7.956;2024-01-27T10:05:49;20.73;;;8.07;;
5121;SDS011;2563;52.242;7.956;2024-01-27T10:08:15;19.50;;;8.23;;
5121;SDS011;2563;52.242;7.956;2024-01-27T10:10:41;21.40;;;7.40;;
5121;SDS011;2563;52.242;7.956;2024-01-27T10:13:06;19.93;;;7.10;;
5121;SDS011;2563;52.242;7.956;2024-01-27T10:15:32;23.03;;;7.73;;
5121;SDS011;2563;52.242;7.956;2024-01-27T10:18:07;22.93;;;8.33;;
5121;SDS011;2563;52.242;7.956;2024-01-27T10:20:33;22.63;;;7.70;;
5121;SDS011;2563;52.242;7.956;2024-01-27T10:22:59;20.97;;;7.93;;
5121;SDS011;2563;52.242;7.956;2024-01-27T10:25:37;24.03;;;7.23;;
5121;SDS011;2563;52.242;7.956;2024-01-27T10:28:04;23.00;;;7.70;;
5121;SDS011;2563;52.242;7.956;2024-01-27T10:30:30;19.27;;;6.93;;
5121;SDS011;2563;52.242;7.956;2024-01-27T10:32:55;16.97;;;7.60;;
5121;SDS011;2563;52.242;7.956;2024-01-27T10:35:25;17.37;;;6.40;;
5121;SDS011;2563;52.242;7.956;2024-01-27T10:37:51;20.20;;;7.43;;
5121;SDS011;2563;52.242;7.956;2024-01-27T10:40:18;22.97;;;6.77;;
5121;SDS011;2563;52.242;7.956;2024-01-27T10:42:44;14.00;;;6.87;;
5121;SDS011;2563;52.242;7.956;2024-01-27T10:45:11;18.00;;;7.93;;
5121;SDS011;2563;52.242;7.956;2024-01-27T10:47:36;23.80;;;8.53;;
5121;SDS011;2563;52.242;7.956;2024-01-27T10:50:04;16.80;;;7.43;;
5121;SDS011;2563;52.242;7.956;2024-01-27T10:52:34;16.13;;;7.17;;
5121;SDS011;2563;52.242;7.956;2024-01-27T10:55:04;26.43;;;7.40;;
5121;SDS011;2563;52.242;7.956;2024-01-27T10:57:33;25.53;;;7.20;;
5121;SDS011;2563;52.242;7.956;2024-01-27T11:00:03;18.30;;;6.90;;
5121;SDS011;2563;52.242;7.956;2024-01-27T11:02:34;27.53;;;7.87;;
5121;SDS011;2563;52.242;7.956;2024-01-27T11:05:04;28.67;;;8.47;;
5121;SDS011;2563;52.242;7.956;2024-01-27T11:07:33;21.80;;;6.83;;
5121;SDS011;2563;52.242;7.956;2024-01-27T11:09:59;20.73;;;7.13;;
5121;SDS011;2563;52.242;7.956;2024-01-27T11:12:24;15.97;;;6.10;;
5121;SDS011;2563;52.242;7.956;2024-01-27T11:14:51;23.83;;;7.40;;
5121;SDS011;2563;52.242;7.956;2024-01-27T11:17:18;22.77;;;7.90;;
5121;SDS011;2563;52.242;7.956;2024-01-27T11:19:47;15.43;;;6.97;;
5121;SDS011;2563;52.242;7.956;2024-01-27T11:22:25;17.20;;;6.40;;
5121;SDS011;2563;52.242;7.956;2024-01-27T11:25:37;20.47;;;6.07;;
5121;SDS011;2563;52.242;7.956;2024-01-27T11:27:38;29.50;;;6.80;;
5121;SDS011;2563;52.242;7.956;2024-01-27T11:30:05;15.80;;;6.20;;
5121;SDS011;2563;52.242;7.956;2024-01-27T11:32:31;23.40;;;7.40;;
5121;SDS011;2563;52.242;7.956;2024-01-27T11:35:00;16.63;;;6.23;;
5121;SDS011;2563;52.242;7.956;2024-01-27T11:37:29;16.73;;;5.07;;
5121;SDS011;2563;52.242;7.956;2024-01-27T11:40:03;16.90;;;6.87;;
5121;SDS011;2563;52.242;7.956;2024-01-27T11:42:31;20.90;;;5.43;;
5121;SDS011;2563;52.242;7.956;2024-01-27T11:44:57;14.10;;;6.00;;
5121;SDS011;2563;52.242;7.956;2024-01-27T11:47:22;14.27;;;5.70;;
5121;SDS011;2563;52.242;7.956;2024-01-27T11:49:51;15.90;;;5.27;;
5121;SDS011;2563;52.242;7.956;2024-01-27T11:52:18;17.43;;;5.60;;
5121;SDS011;2563;52.242;7.956;2024-01-27T11:54:44;14.47;;;4.90;;
5121;SDS011;2563;52.242;7.956;2024-01-27T11:57:09;23.63;;;5.13;;
5121;SDS011;2563;52.242;7.956;2024-01-27T11:59:35;17.60;;;5.23;;
5121;SDS011;2563;52.242;7.956;2024-01-27T12:02:01;17.17;;;5.23;;
5121;SDS011;2563;52.242;7.956;2024-01-27T12:04:27;23.13;;;6.40;;
5121;SDS011;2563;52.242;7.956;2024-01-27T12:06:53;22.83;;;6.53;;
5121;SDS011;2563;52.242;7.956;2024-01-27T12:09:19;20.67;;;5.87;;
5121;SDS011;2563;52.242;7.956;2024-01-27T12:11:44;14.93;;;4.90;;
5121;SDS011;2563;52.242;7.956;2024-01-27T12:14:10;12.30;;;5.60;;
5121;SDS011;2563;52.242;7.956;2024-01-27T12:16:36;22.40;;;6.73;;
5121;SDS011;2563;52.242;7.956;2024-01-27T12:19:03;20.13;;;5.40;;
5121;SDS011;2563;52.242;7.956;2024-01-27T12:21:28;18.17;;;5.60;;
5121;SDS011;2563;52.242;7.956;2024-01-27T12:23:55;16.77;;;5.77;;
5121;SDS011;2563;52.242;7.956;2024-01-27T12:26:21;15.43;;;5.40;;
5121;SDS011;2563;52.242;7.956;2024-01-27T12:28:51;10.73;;;4.43;;
5121;SDS011;2563;52.242;7.956;2024-01-27T12:31:16;21.00;;;5.20;;
5121;SDS011;2563;52.242;7.956;2024-01-27T12:33:49;15.63;;;5.10;;
5121;SDS011;2563;52.242;7.956;2024-01-27T12:36:19;17.17;;;4.80;;
5121;SDS011;2563;52.242;7.956;2024-01-27T12:38:58;15.60;;;5.40;;
5121;SDS011;2563;52.242;7.956;2024-01-27T12:41:25;20.43;;;5.97;;
5121;SDS011;2563;52.242;7.956;2024-01-27T12:43:51;13.30;;;5.20;;
5121;SDS011;2563;52.242;7.956;2024-01-27T12:46:17;22.00;;;4.87;;
5121;SDS011;2563;52.242;7.956;2024-01-27T12:48:43;25.50;;;5.20;;
5121;SDS011;2563;52.242;7.956;2024-01-27T12:51:09;12.73;;;4.20;;
5121;SDS011;2563;52.242;7.956;2024-01-27T12:53:35;10.50;;;4.10;;
5121;SDS011;2563;52.242;7.956;2024-01-27T12:56:00;15.50;;;4.70;;
5121;SDS011;2563;52.242;7.956;2024-01-27T12:58:25;15.07;;;3.87;;
5121;SDS011;2563;52.242;7.956;2024-01-27T13:00:51;12.30;;;4.07;;
5121;SDS011;2563;52.242;7.956;2024-01-27T13:03:16;10.60;;;4.50;;
5121;SDS011;2563;52.242;7.956;2024-01-27T13:05:42;12.30;;;4.07;;
5121;SDS011;2563;52.242;7.956;2024-01-27T13:08:08;15.70;;;4.90;;
5121;SDS011;2563;52.242;7.956;2024-01-27T13:10:33;15.80;;;4.17;;
5121;SDS011;2563;52.242;7.956;2024-01-27T13:12:59;12.10;;;4.37;;
5121;SDS011;2563;52.242;7.956;2024-01-27T13:15:24;12.20;;;4.67;;
5121;SDS011;2563;52.242;7.956;2024-01-27T13:17:51;16.43;;;4.67;;
5121;SDS011;2563;52.242;7.956;2024-01-27T13:20:16;14.07;;;4.37;;
5121;SDS011;2563;52.242;7.956;2024-01-27T13:22:42;18.77;;;5.27;;
5121;SDS011;2563;52.242;7.956;2024-01-27T13:25:08;16.53;;;4.83;;
5121;SDS011;2563;52.242;7.956;2024-01-27T13:27:34;16.63;;;5.00;;
5121;SDS011;2563;52.242;7.956;2024-01-27T13:29:59;14.83;;;4.37;;
5121;SDS011;2563;52.242;7.956;2024-01-27T13:32:25;13.50;;;6.10;;
5121;SDS011;2563;52.242;7.956;2024-01-27T13:34:51;16.13;;;4.33;;
5121;SDS011;2563;52.242;7.956;2024-01-27T13:37:17;21.87;;;6.00;;
5121;SDS011;2563;52.242;7.956;2024-01-27T13:39:42;16.80;;;4.87;;
5121;SDS011;2563;52.242;7.956;2024-01-27T13:42:08;20.50;;;4.80;;
5121;SDS011;2563;52.242;7.956;2024-01-27T13:44:34;17.10;;;3.87;;
5121;SDS011;2563;52.242;7.956;2024-01-27T13:47:01;14.97;;;3.70;;
5121;SDS011;2563;52.242;7.956;2024-01-27T13:49:27;10.97;;;3.90;;
5121;SDS011;2563;52.242;7.956;2024-01-27T13:51:53;14.33;;;4.50;;
5121;SDS011;2563;52.242;7.956;2024-01-27T13:54:18;14.10;;;4.30;;
5121;SDS011;2563;52.242;7.956;2024-01-27T13:56:43;19.67;;;4.33;;
5121;SDS011;2563;52.242;7.956;2024-01-27T13:59:10;14.83;;;4.67;;
5121;SDS011;2563;52.242;7.956;2024-01-27T14:01:36;16.53;;;3.57;;
5121;SDS011;2563;52.242;7.956;2024-01-27T14:04:01;13.47;;;4.17;;
5121;SDS011;2563;52.242;7.956;2024-01-27T14:06:26;13.20;;;3.97;;
5121;SDS011;2563;52.242;7.956;2024-01-27T14:08:52;15.97;;;3.60;;
5121;SDS011;2563;52.242;7.956;2024-01-27T14:11:17;22.40;;;3.30;;
5121;SDS011;2563;52.242;7.956;2024-01-27T14:13:43;11.97;;;3.73;;
5121;SDS011;2563;52.242;7.956;2024-01-27T14:16:09;14.90;;;3.87;;
5121;SDS011;2563;52.242;7.956;2024-01-27T14:18:34;14.10;;;4.93;;
5121;SDS011;2563;52.242;7.956;2024-01-27T14:21:00;18.33;;;3.50;;
5121;SDS011;2563;52.242;7.956;2024-01-27T14:23:25;11.13;;;4.00;;
5121;SDS011;2563;52.242;7.956;2024-01-27T14:25:51;17.23;;;4.50;;
5121;SDS011;2563;52.242;7.956;2024-01-27T14:28:17;15.57;;;4.53;;
5121;SDS011;2563;52.242;7.956;2024-01-27T14:30:42;12.63;;;4.03;;
5121;SDS011;2563;52.242;7.956;2024-01-27T14:33:09;13.60;;;3.87;;
5121;SDS011;2563;52.242;7.956;2024-01-27T14:35:35;18.47;;;4.13;;
5121;SDS011;2563;52.242;7.956;2024-01-27T14:38:01;13.10;;;3.90;;
5121;SDS011;2563;52.242;7.956;2024-01-27T14:40:27;12.20;;;4.20;;
5121;SDS011;2563;52.242;7.956;2024-01-27T14:42:52;13.83;;;4.20;;
5121;SDS011;2563;52.242;7.956;2024-01-27T14:45:18;14.23;;;5.30;;
5121;SDS011;2563;52.242;7.956;2024-01-27T14:47:43;13.60;;;4.17;;
5121;SDS011;2563;52.242;7.956;2024-01-27T14:50:09;13.23;;;3.57;;
5121;SDS011;2563;52.242;7.956;2024-01-27T14:52:34;14.07;;;4.20;;
5121;SDS011;2563;52.242;7.956;2024-01-27T14:55:00;12.77;;;3.27;;